Time;durP1;ratioP1;P1;durP2;ratioP2;P2;SDS_P1;SDS_P2;PMS_P1;PMS_P2;Temp;Humidity;BMP_temperature;BMP_pressure;BME280_temperature;BME280_humidity;BME280_pressure;Samples;Min_cycle;Max_cycle;Signal;HPM_P1;HPM_P2
2021/12/27 00:01:05;;;;;;;8.47;4.80;;;-5.30;99.90;;;;;;5035126;28;20181;-79
2021/12/27 00:03:31;;;;;;;10.13;4.70;;;-5.30;99.90;;;;;;5042242;28;20188;-79
2021/12/27 00:05:57;;;;;;;9.83;4.77;;;-5.30;99.90;;;;;;5025019;28;20182;-79
2021/12/27 00:08:23;;;;;;;8.80;4.60;;;-5.30;99.90;;;;;;5025102;28;20196;-80
2021/12/27 00:10:50;;;;;;;7.90;4.70;;;-5.30;99.90;;;;;;5044524;28;20246;-80
2021/12/27 00:13:15;;;;;;;9.53;5.13;;;-5.30;99.90;;;;;;5044645;28;20222;-79
2021/12/27 00:15:43;;;;;;;10.77;5.93;;;-5.30;99.90;;;;;;5030509;28;20178;-79
2021/12/27 00:18:09;;;;;;;11.50;5.40;;;-5.40;99.90;;;;;;5031834;28;20209;-79
2021/12/27 00:20:35;;;;;;;10.03;5.30;;;-5.40;99.90;;;;;;5030835;28;20178;-79
2021/12/27 00:23:01;;;;;;;9.60;5.33;;;-5.40;99.90;;;;;;5029153;28;20213;-79
2021/12/27 00:25:28;;;;;;;7.80;4.93;;;-5.40;99.90;;;;;;5044878;28;20195;-79
2021/12/27 00:27:55;;;;;;;12.27;5.10;;;-5.40;99.90;;;;;;5044531;28;20178;-79
2021/12/27 00:30:22;;;;;;;11.47;5.73;;;-5.40;99.90;;;;;;5047295;28;20241;-79
2021/12/27 00:32:49;;;;;;;9.63;5.23;;;-5.40;99.90;;;;;;5055601;28;20272;-79
2021/12/27 00:35:18;;;;;;;10.57;5.57;;;-5.40;99.90;;;;;;5041350;28;20170;-78
2021/12/27 00:37:44;;;;;;;10.87;5.93;;;-5.30;99.90;;;;;;5042283;28;20161;-78
2021/12/27 00:40:11;;;;;;;11.37;5.83;;;-5.20;99.90;;;;;;5044164;28;20196;-79
2021/12/27 00:42:37;;;;;;;11.87;6.07;;;-5.30;99.90;;;;;;5042786;28;20272;-79
2021/12/27 00:45:03;;;;;;;14.53;5.60;;;-5.30;99.90;;;;;;5049841;28;20165;-78
2021/12/27 00:47:29;;;;;;;12.37;6.07;;;-5.30;99.90;;;;;;5045029;28;20162;-78
2021/12/27 00:49:54;;;;;;;11.50;6.40;;;-5.30;99.90;;;;;;5045210;28;20176;-79
2021/12/27 00:52:20;;;;;;;9.87;5.47;;;-5.20;99.90;;;;;;5043974;28;20255;-78
2021/12/27 00:54:45;;;;;;;12.67;6.07;;;-5.30;99.90;;;;;;5041364;28;20169;-78
2021/12/27 00:57:11;;;;;;;8.97;5.57;;;-5.40;99.90;;;;;;5042060;28;20161;-79
2021/12/27 00:59:37;;;;;;;13.47;6.03;;;-5.30;99.90;;;;;;5031240;28;20235;-79
2021/12/27 01:02:02;;;;;;;10.00;5.37;;;-5.30;99.90;;;;;;5021465;28;20221;-80
2021/12/27 01:04:28;;;;;;;12.80;6.63;;;-5.30;99.90;;;;;;5019630;28;20177;-80
2021/12/27 01:06:54;;;;;;;13.20;6.33;;;-5.30;99.90;;;;;;5024164;28;20182;-80
2021/12/27 01:10:10;;;;;;;11.97;6.10;;;-5.30;99.90;;;;;;5033064;28;20572;-80
2021/12/27 01:15:10;;;;;;;13.20;6.07;;;-5.20;99.90;;;;;;5043623;28;20176;-80
2021/12/27 01:17:39;;;;;;;13.27;7.00;;;-5.30;99.90;;;;;;5020773;28;20183;-80
2021/12/27 01:20:08;;;;;;;15.33;7.13;;;-5.30;99.90;;;;;;5022712;28;20181;-80
2021/12/27 01:22:33;;;;;;;16.67;7.03;;;-5.30;99.90;;;;;;5038445;28;20208;-79
2021/12/27 01:24:59;;;;;;;13.57;6.83;;;-5.30;99.90;;;;;;5020888;28;20174;-79
2021/12/27 01:27:25;;;;;;;13.33;6.43;;;-5.30;99.90;;;;;;5022510;28;20788;-78
2021/12/27 01:29:51;;;;;;;14.73;6.67;;;-5.20;99.90;;;;;;5022832;28;20181;-80
2021/12/27 01:32:16;;;;;;;14.70;6.83;;;-5.20;99.90;;;;;;5016491;28;20218;-79
2021/12/27 01:34:42;;;;;;;14.20;6.50;;;-5.20;99.90;;;;;;5023786;28;20229;-79
2021/12/27 01:37:08;;;;;;;15.53;7.23;;;-5.20;99.90;;;;;;5021522;28;20526;-80
2021/12/27 01:39:38;;;;;;;15.13;7.17;;;-5.20;99.90;;;;;;5032754;28;20202;-80
2021/12/27 01:42:04;;;;;;;16.87;7.63;;;-5.10;99.90;;;;;;5019073;28;20210;-80
2021/12/27 01:44:30;;;;;;;16.47;7.50;;;-5.10;99.90;;;;;;5023474;28;20223;-81
2021/12/27 01:46:55;;;;;;;15.27;7.87;;;-5.10;99.90;;;;;;5034415;28;20173;-80
2021/12/27 01:49:21;;;;;;;16.50;7.83;;;-5.10;99.90;;;;;;5022823;28;20178;-79
2021/12/27 01:51:46;;;;;;;16.97;8.17;;;-5.20;99.90;;;;;;5038846;28;20227;-78
2021/12/27 01:54:12;;;;;;;19.77;8.70;;;-5.20;99.90;;;;;;5024440;28;20200;-80
2021/12/27 01:56:38;;;;;;;15.87;7.83;;;-5.20;99.90;;;;;;5040968;28;20178;-80
2021/12/27 01:59:04;;;;;;;16.17;7.93;;;-5.20;99.90;;;;;;5023858;28;20173;-80
2021/12/27 02:01:29;;;;;;;20.30;8.40;;;-5.10;99.90;;;;;;5022449;28;20226;-80
2021/12/27 02:03:57;;;;;;;17.00;8.13;;;-5.10;99.90;;;;;;5039476;28;20177;-80
2021/12/27 02:06:25;;;;;;;18.90;7.93;;;-5.10;99.90;;;;;;5017340;28;20201;-80
2021/12/27 02:08:51;;;;;;;15.27;8.23;;;-5.10;99.90;;;;;;5022204;28;20197;-80
2021/12/27 02:11:18;;;;;;;16.50;8.47;;;-5.10;99.90;;;;;;5022368;28;20243;-80
2021/12/27 02:13:46;;;;;;;15.00;7.70;;;-5.10;99.90;;;;;;5027365;28;20216;-80
2021/12/27 02:16:14;;;;;;;15.07;7.97;;;-5.10;99.90;;;;;;5035319;28;20161;-80
2021/12/27 02:18:40;;;;;;;18.20;8.30;;;-5.10;99.90;;;;;;5038682;28;20625;-80
2021/12/27 02:21:07;;;;;;;18.63;9.20;;;-5.10;99.90;;;;;;5023151;28;20182;-80
2021/12/27 02:23:33;;;;;;;19.53;8.70;;;-5.00;99.90;;;;;;5023598;28;20189;-79
2021/12/27 02:25:59;;;;;;;16.57;7.90;;;-5.00;99.90;;;;;;5022806;28;20181;-80
2021/12/27 02:28:25;;;;;;;15.40;8.77;;;-5.00;99.90;;;;;;5019971;28;20169;-80
2021/12/27 02:30:53;;;;;;;17.03;8.50;;;-5.00;99.90;;;;;;5021063;28;20185;-80
2021/12/27 02:33:20;;;;;;;18.77;8.63;;;-5.10;99.90;;;;;;5036277;28;20617;-80
2021/12/27 02:35:58;;;;;;;18.87;8.43;;;-5.10;99.90;;;;;;5038234;28;20204;-80
2021/12/27 02:38:27;;;;;;;16.87;8.87;;;-5.10;99.90;;;;;;5028167;28;20178;-78
2021/12/27 02:40:53;;;;;;;18.73;8.60;;;-5.10;99.90;;;;;;5039291;28;20625;-79
2021/12/27 02:43:21;;;;;;;21.03;9.00;;;-5.20;99.90;;;;;;5033263;28;20202;-78
2021/12/27 02:45:53;;;;;;;20.20;9.27;;;-5.20;99.90;;;;;;5020282;28;20177;-79
2021/12/27 02:48:23;;;;;;;16.77;9.00;;;-5.20;99.90;;;;;;5045701;28;20631;-79
2021/12/27 02:50:50;;;;;;;20.07;8.73;;;-5.20;99.90;;;;;;5041085;28;20670;-79
2021/12/27 02:53:17;;;;;;;20.20;9.03;;;-5.20;99.90;;;;;;5021887;28;20661;-79
2021/12/27 02:55:44;;;;;;;18.53;8.20;;;-5.30;99.90;;;;;;5024176;28;20209;-79
2021/12/27 02:58:10;;;;;;;20.13;8.43;;;-5.20;99.90;;;;;;5020464;28;20189;-79
2021/12/27 03:00:39;;;;;;;18.80;8.93;;;-5.20;99.90;;;;;;5021329;28;20208;-79
2021/12/27 03:03:05;;;;;;;21.23;9.27;;;-5.20;99.90;;;;;;5024224;28;20203;-79
2021/12/27 03:05:32;;;;;;;19.97;9.03;;;-5.20;99.90;;;;;;5044558;28;20186;-78
2021/12/27 03:07:58;;;;;;;21.27;9.17;;;-5.20;99.90;;;;;;5033013;28;20170;-79
2021/12/27 03:10:27;;;;;;;18.83;9.00;;;-5.20;99.90;;;;;;5023552;28;20179;-78
2021/12/27 03:12:53;;;;;;;18.93;9.63;;;-5.20;99.90;;;;;;5026828;28;20212;-80
2021/12/27 03:15:22;;;;;;;20.47;9.17;;;-5.10;99.90;;;;;;5022080;28;20197;-78
2021/12/27 03:17:50;;;;;;;16.87;8.27;;;-5.10;99.90;;;;;;5026260;28;20181;-78
2021/12/27 03:20:18;;;;;;;20.40;9.67;;;-5.10;99.90;;;;;;5037800;28;20219;-79
2021/12/27 03:22:44;;;;;;;18.10;9.07;;;-5.10;99.90;;;;;;5026180;28;20197;-78
2021/12/27 03:25:15;;;;;;;23.00;9.63;;;-5.20;99.90;;;;;;5026755;28;20177;-79
2021/12/27 03:27:41;;;;;;;21.30;10.27;;;-5.10;99.90;;;;;;5027007;28;20169;-79
2021/12/27 03:30:22;;;;;;;20.63;9.07;;;-5.10;99.90;;;;;;5025578;28;20178;-79
2021/12/27 03:32:48;;;;;;;22.93;10.37;;;-5.10;99.90;;;;;;5017764;28;20244;-79
2021/12/27 03:35:18;;;;;;;21.47;9.07;;;-5.10;99.90;;;;;;5024182;28;20223;-78
2021/12/27 03:37:46;;;;;;;22.17;10.07;;;-5.20;99.90;;;;;;5024534;28;20196;-80
2021/12/27 03:40:15;;;;;;;21.37;9.27;;;-5.10;99.90;;;;;;5020236;28;20264;-79
2021/12/27 03:42:49;;;;;;;19.63;9.63;;;-5.10;99.90;;;;;;5041351;28;20213;-79
2021/12/27 03:45:18;;;;;;;21.17;10.23;;;-5.10;99.90;;;;;;5021405;28;20173;-79
2021/12/27 03:47:44;;;;;;;21.03;9.87;;;-5.10;99.90;;;;;;5024547;28;20170;-79
2021/12/27 03:50:09;;;;;;;18.30;9.53;;;-5.00;99.90;;;;;;5022022;28;20181;-79
2021/12/27 03:52:37;;;;;;;23.17;10.10;;;-4.90;99.90;;;;;;5026425;28;20656;-80
2021/12/27 03:55:04;;;;;;;22.90;10.07;;;-4.90;99.90;;;;;;5020531;28;20170;-80
2021/12/27 03:57:32;;;;;;;17.33;9.60;;;-4.90;99.90;;;;;;5025602;28;20185;-79
2021/12/27 04:02:43;;;;;;;22.73;10.17;;;-4.80;99.90;;;;;;5054286;28;20560;-81
2021/12/27 04:05:09;;;;;;;23.03;9.97;;;-4.90;99.90;;;;;;5023000;28;20625;-79
2021/12/27 04:07:40;;;;;;;20.50;10.20;;;-4.90;99.90;;;;;;5042798;28;20181;-80
2021/12/27 04:10:08;;;;;;;18.83;9.73;;;-4.80;99.90;;;;;;5021528;28;20249;-79
2021/12/27 04:12:35;;;;;;;21.57;9.93;;;-4.80;99.90;;;;;;5042621;28;20212;-79
2021/12/27 04:15:01;;;;;;;17.93;9.80;;;-4.80;99.90;;;;;;5038595;28;20177;-79
2021/12/27 04:17:27;;;;;;;22.50;10.60;;;-4.80;99.90;;;;;;5024806;28;20182;-79
2021/12/27 04:19:53;;;;;;;20.63;10.53;;;-4.70;99.90;;;;;;5020505;28;20167;-79
2021/12/27 04:22:19;;;;;;;18.37;9.73;;;-4.80;99.90;;;;;;5020425;28;20558;-79
2021/12/27 04:24:44;;;;;;;18.40;9.97;;;-4.70;99.90;;;;;;5022908;28;20201;-80
2021/12/27 04:27:10;;;;;;;24.47;11.10;;;-4.70;99.90;;;;;;5023923;28;20174;-80
2021/12/27 04:29:35;;;;;;;21.60;9.93;;;-4.70;99.90;;;;;;5015817;28;20189;-80
2021/12/27 04:32:01;;;;;;;20.97;10.77;;;-4.70;99.90;;;;;;5032463;28;20201;-81
2021/12/27 04:34:27;;;;;;;21.40;10.40;;;-4.70;99.90;;;;;;5025463;28;20173;-81
2021/12/27 04:36:52;;;;;;;19.17;10.03;;;-4.70;99.90;;;;;;5022007;28;20269;-80
2021/12/27 04:39:18;;;;;;;18.37;10.10;;;-4.70;99.90;;;;;;5022074;28;20194;-80
2021/12/27 04:41:44;;;;;;;17.57;10.00;;;-4.70;99.90;;;;;;5037648;28;20235;-82
2021/12/27 04:44:10;;;;;;;21.80;10.57;;;-4.60;99.90;;;;;;5022500;28;20233;-80
2021/12/27 04:46:36;;;;;;;21.63;10.53;;;-4.60;99.90;;;;;;5021844;28;20197;-80
2021/12/27 04:49:02;;;;;;;20.30;10.53;;;-4.60;99.90;;;;;;5019535;28;20636;-80
2021/12/27 04:51:27;;;;;;;19.10;10.43;;;-4.50;99.90;;;;;;5022384;28;20554;-80
2021/12/27 04:53:54;;;;;;;21.03;11.20;;;-4.50;99.90;;;;;;5020480;28;20186;-80
2021/12/27 04:56:20;;;;;;;21.63;10.43;;;-4.50;99.90;;;;;;5022855;28;20200;-80
2021/12/27 04:58:46;;;;;;;24.87;10.83;;;-4.50;99.90;;;;;;5023168;28;20185;-80
2021/12/27 05:01:13;;;;;;;22.40;10.60;;;-4.60;99.90;;;;;;5023285;28;20175;-80
2021/12/27 05:03:39;;;;;;;25.43;10.90;;;-4.50;99.90;;;;;;5021752;28;20195;-80
2021/12/27 05:06:05;;;;;;;24.50;10.97;;;-4.40;99.90;;;;;;5021654;28;20197;-80
2021/12/27 05:08:31;;;;;;;22.77;11.03;;;-4.40;99.90;;;;;;5021831;28;20549;-80
2021/12/27 05:10:56;;;;;;;21.77;11.43;;;-4.30;99.90;;;;;;5021159;28;20182;-80
2021/12/27 05:13:22;;;;;;;25.53;11.03;;;-4.20;99.90;;;;;;5024923;28;20176;-80
2021/12/27 05:15:48;;;;;;;23.93;11.47;;;-4.30;99.90;;;;;;5018517;28;20182;-81
2021/12/27 05:18:14;;;;;;;25.57;12.40;;;-4.30;99.90;;;;;;5021255;28;20178;-81
2021/12/27 05:20:40;;;;;;;22.30;11.33;;;-4.20;99.90;;;;;;5024320;28;20184;-80
2021/12/27 05:23:05;;;;;;;23.07;10.87;;;-4.20;99.90;;;;;;5024572;28;20240;-81
2021/12/27 05:25:31;;;;;;;22.90;11.33;;;-4.10;99.90;;;;;;5020358;28;20538;-81
2021/12/27 05:27:57;;;;;;;23.13;11.30;;;-4.20;99.90;;;;;;5025921;28;20181;-81
2021/12/27 05:30:30;;;;;;;22.03;11.87;;;-4.20;99.90;;;;;;5024064;28;20187;-81
2021/12/27 05:32:56;;;;;;;20.10;10.93;;;-4.20;99.90;;;;;;5017918;28;20209;-80
2021/12/27 05:35:22;;;;;;;24.47;11.40;;;-4.20;99.90;;;;;;5020939;28;20181;-81
2021/12/27 05:37:48;;;;;;;22.07;10.70;;;-4.20;99.90;;;;;;5024996;28;20182;-80
2021/12/27 05:40:17;;;;;;;23.33;10.87;;;-4.10;99.90;;;;;;5034480;28;20187;-82
2021/12/27 05:42:43;;;;;;;27.67;12.60;;;-4.10;99.90;;;;;;5055129;28;20209;-80
2021/12/27 05:45:09;;;;;;;23.50;11.87;;;-4.10;99.90;;;;;;5032261;28;20182;-79
2021/12/27 05:47:35;;;;;;;25.90;11.70;;;-4.10;99.90;;;;;;5037180;28;20202;-81
2021/12/27 05:50:10;;;;;;;26.13;12.00;;;-4.10;99.90;;;;;;5052662;28;20209;-79
2021/12/27 05:52:37;;;;;;;23.53;11.30;;;-4.10;99.90;;;;;;5033469;28;20307;-79
2021/12/27 05:55:04;;;;;;;23.13;11.13;;;-4.10;99.90;;;;;;5031512;28;20276;-79
2021/12/27 05:57:30;;;;;;;29.03;12.40;;;-4.10;99.90;;;;;;5030879;28;20197;-79
2021/12/27 05:59:56;;;;;;;21.70;11.43;;;-4.20;99.90;;;;;;5047909;28;20174;-79
2021/12/27 06:02:22;;;;;;;23.60;11.33;;;-4.20;99.90;;;;;;5024563;28;20285;-79
2021/12/27 06:04:47;;;;;;;23.03;12.10;;;-4.20;99.90;;;;;;5020334;28;20200;-78
2021/12/27 06:07:13;;;;;;;23.13;11.87;;;-4.20;99.90;;;;;;5029810;28;20537;-78
2021/12/27 06:09:39;;;;;;;26.17;12.90;;;-4.20;99.90;;;;;;5015600;28;20245;-78
2021/12/27 06:12:33;;;;;;;25.77;11.90;;;-4.20;99.90;;;;;;5034740;28;20212;-78
2021/12/27 06:14:59;;;;;;;25.53;12.43;;;-4.20;99.90;;;;;;5035739;28;20539;-78
2021/12/27 06:17:25;;;;;;;23.83;11.63;;;-4.30;99.90;;;;;;5019117;28;20184;-79
2021/12/27 06:19:50;;;;;;;25.83;12.63;;;-4.40;99.90;;;;;;5019228;28;20177;-79
2021/12/27 06:22:17;;;;;;;26.43;12.50;;;-4.50;99.90;;;;;;5019191;28;20201;-79
2021/12/27 06:24:42;;;;;;;23.90;11.13;;;-4.60;99.90;;;;;;5031570;28;20178;-81
2021/12/27 06:27:08;;;;;;;26.90;12.93;;;-4.60;99.90;;;;;;5026110;28;20185;-78
2021/12/27 06:29:34;;;;;;;25.53;12.57;;;-4.60;99.90;;;;;;5035125;28;20180;-79
2021/12/27 06:32:03;;;;;;;23.63;12.60;;;-4.60;99.90;;;;;;5033150;28;20233;-78
2021/12/27 06:34:28;;;;;;;26.00;12.37;;;-4.70;99.90;;;;;;5013719;28;20264;-79
2021/12/27 06:36:54;;;;;;;23.33;11.57;;;-4.60;99.90;;;;;;5022906;28;20261;-78
2021/12/27 06:39:29;;;;;;;23.67;12.30;;;-4.60;99.90;;;;;;5035195;28;20199;-78
2021/12/27 06:41:54;;;;;;;25.53;12.43;;;-4.50;99.90;;;;;;5014826;28;20228;-78
2021/12/27 06:44:20;;;;;;;23.77;12.60;;;-4.50;99.90;;;;;;5033543;28;20197;-78
2021/12/27 06:46:46;;;;;;;26.73;12.80;;;-4.40;99.90;;;;;;5015158;28;20246;-78
2021/12/27 06:49:13;;;;;;;24.17;12.57;;;-4.40;99.90;;;;;;5035748;28;20182;-77
2021/12/27 06:51:38;;;;;;;28.17;12.87;;;-4.40;99.90;;;;;;5015897;28;20213;-78
2021/12/27 06:54:04;;;;;;;27.47;12.90;;;-4.30;99.90;;;;;;5020803;28;20692;-79
2021/12/27 06:56:30;;;;;;;25.93;12.33;;;-4.30;99.90;;;;;;5019850;28;20170;-78
2021/12/27 06:58:56;;;;;;;26.00;12.47;;;-4.20;99.90;;;;;;5015675;28;20189;-78
2021/12/27 07:01:22;;;;;;;28.03;12.43;;;-4.10;99.90;;;;;;5035899;28;20198;-78
2021/12/27 07:03:47;;;;;;;25.67;12.83;;;-4.10;99.90;;;;;;5018823;28;20189;-79
2021/12/27 07:06:13;;;;;;;25.10;12.90;;;-4.10;99.90;;;;;;5050289;28;20317;-79
2021/12/27 07:08:39;;;;;;;30.23;13.10;;;-4.00;99.90;;;;;;5054445;28;20181;-77
2021/12/27 07:11:04;;;;;;;29.23;13.13;;;-4.00;99.90;;;;;;5041019;28;20208;-78
2021/12/27 07:13:30;;;;;;;27.03;12.80;;;-4.00;99.90;;;;;;5038057;28;20190;-78
2021/12/27 07:16:05;;;;;;;31.87;14.20;;;-4.10;99.90;;;;;;5037136;28;20186;-77
2021/12/27 07:18:30;;;;;;;28.33;13.67;;;-4.10;99.90;;;;;;5057363;28;20191;-78
2021/12/27 07:20:56;;;;;;;32.40;13.00;;;-4.00;99.90;;;;;;5042351;28;20178;-78
2021/12/27 07:23:22;;;;;;;26.00;13.30;;;-4.00;99.90;;;;;;5043100;28;20173;-78
2021/12/27 07:25:48;;;;;;;26.33;12.97;;;-3.90;99.90;;;;;;5038980;28;20179;-79
2021/12/27 07:28:14;;;;;;;26.87;13.73;;;-3.90;99.90;;;;;;5042227;28;20196;-78
2021/12/27 07:30:39;;;;;;;25.87;13.07;;;-3.90;99.90;;;;;;5045415;28;20191;-81
2021/12/27 07:33:05;;;;;;;26.47;13.33;;;-3.90;99.90;;;;;;5026682;28;20236;-78
2021/12/27 07:35:31;;;;;;;28.87;13.10;;;-3.90;99.90;;;;;;5041102;28;20513;-77
2021/12/27 07:37:57;;;;;;;26.70;12.97;;;-4.00;99.90;;;;;;5017536;28;20178;-78
2021/12/27 07:40:23;;;;;;;26.07;13.60;;;-4.00;99.90;;;;;;5020010;28;20178;-78
2021/12/27 07:42:49;;;;;;;27.50;13.97;;;-4.10;99.90;;;;;;5044142;28;20240;-79
2021/12/27 07:45:14;;;;;;;28.80;13.10;;;-4.10;99.90;;;;;;5015594;28;20181;-79
2021/12/27 07:47:46;;;;;;;29.27;15.07;;;-4.10;99.90;;;;;;5021109;28;20186;-79
2021/12/27 07:50:12;;;;;;;31.77;13.97;;;-4.20;99.90;;;;;;5022291;28;20182;-79
2021/12/27 07:52:38;;;;;;;30.53;14.73;;;-4.10;99.90;;;;;;5021713;28;20215;-79
2021/12/27 07:55:04;;;;;;;27.20;14.47;;;-4.00;99.90;;;;;;5022150;28;20178;-79
2021/12/27 07:57:30;;;;;;;29.80;14.00;;;-4.00;99.90;;;;;;5038331;28;20199;-78
2021/12/27 07:59:56;;;;;;;28.87;13.90;;;-3.90;99.90;;;;;;5037968;28;20272;-79
2021/12/27 08:02:21;;;;;;;26.90;13.90;;;-3.90;99.90;;;;;;5020131;28;20244;-78
2021/12/27 08:04:47;;;;;;;29.13;14.50;;;-3.90;99.90;;;;;;5040220;28;20177;-80
2021/12/27 08:07:13;;;;;;;30.47;14.83;;;-3.80;99.90;;;;;;5037553;28;20177;-78
2021/12/27 08:09:39;;;;;;;28.07;14.70;;;-3.80;99.90;;;;;;5037897;28;20178;-78
2021/12/27 08:12:06;;;;;;;30.30;15.27;;;-3.90;99.90;;;;;;5020071;28;20217;-78
2021/12/27 08:14:32;;;;;;;32.17;13.70;;;-3.90;99.90;;;;;;5017732;28;20217;-78
2021/12/27 08:16:57;;;;;;;29.87;14.07;;;-3.90;99.90;;;;;;5005244;28;20660;-77
2021/12/27 08:19:23;;;;;;;29.30;14.87;;;-3.90;99.90;;;;;;5024516;28;20201;-78
2021/12/27 08:21:49;;;;;;;29.60;14.50;;;-3.80;99.90;;;;;;5016020;28;20194;-78
2021/12/27 08:24:14;;;;;;;31.17;16.20;;;-3.90;99.90;;;;;;5018765;28;20694;-78
2021/12/27 08:26:41;;;;;;;28.63;14.10;;;-3.80;99.90;;;;;;5038830;28;20217;-78
2021/12/27 08:29:10;;;;;;;30.07;15.33;;;-3.80;99.90;;;;;;5014518;28;20186;-78
2021/12/27 08:31:35;;;;;;;27.13;14.93;;;-3.70;99.90;;;;;;5036220;28;20237;-77
2021/12/27 08:34:01;;;;;;;33.27;15.70;;;-3.70;99.90;;;;;;5016244;28;20217;-78
2021/12/27 08:36:27;;;;;;;29.47;15.40;;;-3.80;99.90;;;;;;5036518;28;20647;-77
2021/12/27 08:38:53;;;;;;;34.30;15.43;;;-3.80;99.90;;;;;;5020447;28;20224;-78
2021/12/27 08:41:19;;;;;;;26.63;14.37;;;-3.80;99.90;;;;;;5019523;28;20237;-78
2021/12/27 08:43:46;;;;;;;34.23;15.93;;;-3.70;99.90;;;;;;5036648;28;20177;-78
2021/12/27 08:46:12;;;;;;;29.87;14.97;;;-3.70;99.90;;;;;;5020237;28;20207;-79
2021/12/27 08:48:38;;;;;;;28.90;15.50;;;-3.60;99.90;;;;;;5020792;28;20616;-77
2021/12/27 08:51:04;;;;;;;28.30;15.50;;;-3.60;99.90;;;;;;5019461;28;20181;-77
2021/12/27 08:53:30;;;;;;;31.13;16.53;;;-3.50;99.90;;;;;;5020385;28;20184;-77
2021/12/27 08:55:56;;;;;;;29.50;15.97;;;-3.50;99.90;;;;;;5022724;28;20710;-78
2021/12/27 08:58:22;;;;;;;29.67;15.97;;;-3.50;99.90;;;;;;5020194;28;20179;-80
2021/12/27 09:00:48;;;;;;;33.27;16.50;;;-3.40;99.90;;;;;;5012759;28;20166;-78
2021/12/27 09:03:14;;;;;;;30.87;15.80;;;-3.30;99.90;;;;;;5034579;28;20674;-78
2021/12/27 09:05:41;;;;;;;33.43;15.40;;;-3.40;99.90;;;;;;5008270;28;20530;-78
2021/12/27 09:08:07;;;;;;;34.03;17.17;;;-3.40;99.90;;;;;;5020019;28;20272;-78
2021/12/27 09:10:33;;;;;;;32.77;16.60;;;-3.40;99.90;;;;;;5027351;28;20268;-77
2021/12/27 09:13:11;;;;;;;34.00;17.30;;;-3.40;99.90;;;;;;5013054;28;20252;-77
2021/12/27 09:15:36;;;;;;;29.83;16.47;;;-3.40;99.90;;;;;;5035991;28;20177;-76
2021/12/27 09:18:02;;;;;;;31.40;16.13;;;-3.30;99.90;;;;;;5018790;28;20178;-77
2021/12/27 09:20:28;;;;;;;31.10;15.70;;;-3.30;99.90;;;;;;5016207;28;20178;-77
2021/12/27 09:22:54;;;;;;;29.27;15.43;;;-3.30;99.90;;;;;;5015716;28;20239;-77
2021/12/27 09:25:20;;;;;;;30.17;16.07;;;-3.30;99.90;;;;;;5018922;28;20276;-76
2021/12/27 09:27:46;;;;;;;34.90;15.50;;;-3.20;99.90;;;;;;5020232;28;20270;-76
2021/12/27 09:30:12;;;;;;;32.77;16.07;;;-3.20;99.90;;;;;;5015949;28;20174;-76
2021/12/27 09:32:38;;;;;;;31.43;16.53;;;-3.20;99.90;;;;;;5035383;28;20224;-77
2021/12/27 09:35:05;;;;;;;32.40;16.33;;;-3.20;99.90;;;;;;5027127;28;20696;-78
2021/12/27 09:37:31;;;;;;;35.70;17.00;;;-3.20;99.90;;;;;;5035914;28;20264;-77
2021/12/27 09:39:57;;;;;;;30.23;16.30;;;-3.10;99.90;;;;;;5015740;28;20273;-77
2021/12/27 09:42:25;;;;;;;29.53;15.97;;;-3.10;99.90;;;;;;5015450;28;20218;-77
2021/12/27 09:44:53;;;;;;;35.13;16.90;;;-3.10;99.90;;;;;;5025793;28;20173;-77
2021/12/27 09:47:19;;;;;;;36.00;16.97;;;-3.00;99.90;;;;;;5019660;28;20182;-77
2021/12/27 09:49:46;;;;;;;32.57;15.77;;;-3.10;99.90;;;;;;5019239;28;20192;-77
2021/12/27 09:52:13;;;;;;;31.73;16.00;;;-3.00;99.90;;;;;;5017831;28;20557;-77
2021/12/27 09:54:38;;;;;;;35.90;17.77;;;-3.00;99.90;;;;;;5016118;28;20224;-77
2021/12/27 09:57:04;;;;;;;36.07;17.47;;;-3.10;99.90;;;;;;5035814;28;20200;-76
2021/12/27 09:59:30;;;;;;;37.23;17.07;;;-3.00;99.90;;;;;;5018131;28;20637;-77
2021/12/27 10:01:58;;;;;;;31.23;16.30;;;-3.00;99.90;;;;;;5017789;28;20201;-77
2021/12/27 10:04:24;;;;;;;36.40;17.87;;;-3.00;99.90;;;;;;5021027;28;20176;-76
2021/12/27 10:06:51;;;;;;;31.33;16.20;;;-3.00;99.90;;;;;;5026778;28;20238;-78
2021/12/27 10:09:18;;;;;;;31.37;16.90;;;-3.00;99.90;;;;;;5021757;28;20169;-77
2021/12/27 10:11:46;;;;;;;32.87;17.73;;;-2.90;99.90;;;;;;5017725;28;20291;-78
2021/12/27 10:14:16;;;;;;;38.20;17.73;;;-2.90;99.90;;;;;;5018563;28;20214;-77
2021/12/27 10:16:49;;;;;;;34.37;16.20;;;-2.90;99.90;;;;;;5017119;28;20641;-78
2021/12/27 10:19:17;;;;;;;35.67;18.40;;;-2.90;99.90;;;;;;5015692;28;20171;-78
2021/12/27 10:21:45;;;;;;;38.00;17.87;;;-3.00;99.90;;;;;;5041099;28;20201;-78
2021/12/27 10:24:18;;;;;;;32.13;17.57;;;-3.00;99.90;;;;;;5018775;28;20177;-78
2021/12/27 10:26:52;;;;;;;38.00;18.33;;;-2.90;99.90;;;;;;5028174;28;20180;-78
2021/12/27 10:29:27;;;;;;;36.17;18.17;;;-2.90;99.90;;;;;;5035262;28;20188;-78
2021/12/27 10:31:57;;;;;;;33.30;17.40;;;-2.90;99.90;;;;;;5015461;28;20208;-77
2021/12/27 10:34:25;;;;;;;39.87;18.93;;;-2.90;99.90;;;;;;5035257;28;20158;-79
2021/12/27 10:37:15;;;;;;;33.87;17.80;;;-2.90;99.90;;;;;;5018610;28;20174;-78
2021/12/27 10:39:46;;;;;;;44.70;20.30;;;-2.90;99.90;;;;;;5015763;28;20220;-80
2021/12/27 10:42:15;;;;;;;42.43;20.30;;;-2.80;99.90;;;;;;5011511;28;20579;-79
2021/12/27 10:44:41;;;;;;;37.50;18.83;;;-2.70;99.90;;;;;;5035200;28;20181;-77
2021/12/27 10:47:30;;;;;;;33.87;18.47;;;-2.60;99.90;;;;;;5018714;28;20235;-78
2021/12/27 10:50:03;;;;;;;32.53;17.07;;;-2.50;99.90;;;;;;5012957;28;20212;-78
2021/12/27 10:52:49;;;;;;;35.90;18.27;;;-2.50;99.90;;;;;;5034287;28;20209;-77
2021/12/27 10:55:21;;;;;;;33.23;17.90;;;-2.50;99.90;;;;;;5040173;28;20172;-78
2021/12/27 10:57:46;;;;;;;35.83;17.97;;;-2.60;99.90;;;;;;5053638;28;20168;-78
2021/12/27 11:00:21;;;;;;;41.63;19.40;;;-2.50;99.90;;;;;;5010306;28;20200;-78
2021/12/27 11:02:47;;;;;;;36.10;18.10;;;-2.40;99.90;;;;;;5034703;28;20198;-78
2021/12/27 11:05:15;;;;;;;37.87;19.97;;;-2.40;99.90;;;;;;5018732;28;20244;-78
2021/12/27 11:07:41;;;;;;;37.20;18.57;;;-2.30;99.90;;;;;;5021034;28;20221;-78
2021/12/27 11:10:08;;;;;;;38.90;18.90;;;-2.40;99.90;;;;;;5024146;28;20184;-78
2021/12/27 11:12:33;;;;;;;32.03;17.77;;;-2.30;99.90;;;;;;5040775;28;20284;-78
2021/12/27 11:14:59;;;;;;;36.87;19.43;;;-2.40;99.90;;;;;;5023258;28;20192;-78
2021/12/27 11:17:25;;;;;;;37.00;18.63;;;-2.30;99.90;;;;;;5021024;28;20208;-78
2021/12/27 11:19:51;;;;;;;38.97;20.17;;;-2.20;99.90;;;;;;5025358;28;20196;-78
2021/12/27 11:22:16;;;;;;;33.80;19.30;;;-2.20;99.90;;;;;;5031069;28;20212;-78
2021/12/27 11:24:44;;;;;;;33.90;19.47;;;-2.30;99.90;;;;;;5048545;28;20253;-77
2021/12/27 11:27:12;;;;;;;40.47;19.43;;;-2.20;99.90;;;;;;5027848;28;20251;-77
2021/12/27 11:29:38;;;;;;;39.00;19.27;;;-2.30;99.90;;;;;;5026991;28;20184;-78
2021/12/27 11:32:22;;;;;;;31.93;18.47;;;-2.30;99.90;;;;;;5023868;28;20314;-79
2021/12/27 11:34:56;;;;;;;39.30;18.20;;;-2.20;99.90;;;;;;5023862;28;20183;-79
2021/12/27 11:37:37;;;;;;;34.80;18.17;;;-2.20;99.90;;;;;;5030842;28;20592;-76
2021/12/27 11:40:08;;;;;;;40.57;19.70;;;-2.20;99.90;;;;;;5031815;28;20181;-78
2021/12/27 11:42:53;;;;;;;34.47;19.17;;;-2.20;99.90;;;;;;5037718;28;20205;-77
2021/12/27 11:45:54;;;;;;;33.33;17.70;;;-2.20;99.90;;;;;;5042775;28;20178;-77
2021/12/27 11:48:25;;;;;;;34.77;18.80;;;-2.20;99.90;;;;;;4931729;29;20179;-79
2021/12/27 11:51:01;;;;;;;39.77;19.67;;;-2.20;99.90;;;;;;5013258;28;20189;-79
2021/12/27 11:53:41;;;;;;;35.13;18.60;;;-2.10;99.90;;;;;;5031340;28;20200;-78
2021/12/27 11:56:09;;;;;;;38.17;19.30;;;-2.10;99.90;;;;;;5034291;28;20168;-79
2021/12/27 11:58:41;;;;;;;37.83;19.00;;;-2.10;99.90;;;;;;5037400;28;20246;-79
2021/12/27 12:01:22;;;;;;;37.80;19.73;;;-2.00;99.90;;;;;;5031786;28;20162;-79
2021/12/27 12:03:50;;;;;;;38.07;19.97;;;-1.90;99.90;;;;;;5031993;28;20555;-79
2021/12/27 12:06:35;;;;;;;38.23;19.80;;;-1.80;99.90;;;;;;5046463;28;20175;-80
2021/12/27 12:09:07;;;;;;;37.73;20.90;;;-1.60;99.90;;;;;;5027089;28;20178;-79
2021/12/27 12:11:33;;;;;;;37.67;18.50;;;-1.60;99.90;;;;;;5050187;28;20236;-79
2021/12/27 12:14:23;;;;;;;34.90;19.13;;;-1.70;99.90;;;;;;5031209;28;20633;-80
2021/12/27 12:16:49;;;;;;;35.30;19.17;;;-1.60;99.90;;;;;;5029761;28;20180;-81
2021/12/27 12:19:15;;;;;;;35.13;19.40;;;-1.50;99.90;;;;;;5029812;28;20167;-79
2021/12/27 12:21:48;;;;;;;39.30;19.73;;;-1.60;99.90;;;;;;5025053;28;20214;-80
2021/12/27 12:24:22;;;;;;;38.30;19.43;;;-1.60;99.90;;;;;;5044651;28;20176;-78
2021/12/27 12:26:57;;;;;;;37.20;20.03;;;-1.60;99.90;;;;;;5028914;28;20194;-79
2021/12/27 12:29:23;;;;;;;39.20;19.90;;;-1.60;99.90;;;;;;5028015;28;20181;-80
2021/12/27 12:31:58;;;;;;;36.60;20.07;;;-1.70;99.90;;;;;;5027871;28;20197;-80
2021/12/27 12:34:25;;;;;;;37.27;19.90;;;-1.70;99.90;;;;;;5028961;28;20205;-79
2021/12/27 12:37:15;;;;;;;42.50;20.80;;;-1.60;99.90;;;;;;5029344;28;20192;-79
2021/12/27 12:39:50;;;;;;;35.70;19.33;;;-1.60;99.90;;;;;;5028045;28;20174;-80